createdAt,value
2019-02-18T00:04:33.280Z,6.10
2019-02-18T00:07:16.153Z,6.40
2019-02-18T00:12:50.051Z,6.90
2019-02-18T00:15:26.323Z,7.30
2019-02-18T00:17:57.308Z,6.33
2019-02-18T00:20:39.935Z,6.77
2019-02-18T00:23:18.685Z,6.77
2019-02-18T00:25:49.309Z,6.50
2019-02-18T00:34:13.255Z,6.53
2019-02-18T00:36:45.268Z,6.43
2019-02-18T00:39:15.854Z,6.27
2019-02-18T00:41:56.741Z,6.50
2019-02-18T00:44:38.572Z,6.20
2019-02-18T00:47:09.175Z,6.43
2019-02-18T00:49:41.989Z,6.33
2019-02-18T00:52:23.707Z,6.10
2019-02-18T00:55:05.501Z,5.77
2019-02-18T00:57:37.734Z,5.77
2019-02-18T01:00:09.783Z,6.00
2019-02-18T01:02:59.817Z,6.03
2019-02-18T01:05:30.420Z,6.30
2019-02-18T01:08:01.008Z,5.87
2019-02-18T01:10:50.934Z,6.30
2019-02-18T01:13:21.565Z,6.70
2019-02-18T01:15:52.193Z,6.37
2019-02-18T01:18:42.091Z,6.17
2019-02-18T01:21:12.712Z,6.10
2019-02-18T01:23:43.335Z,6.73
2019-02-18T01:26:33.198Z,6.40
2019-02-18T01:29:22.573Z,6.33
2019-02-18T01:32:12.452Z,6.53
2019-02-18T01:34:43.085Z,6.67
2019-02-18T01:37:14.005Z,6.17
2019-02-18T01:42:34.340Z,6.57
2019-02-18T01:45:07.700Z,6.07
2019-02-18T01:47:38.380Z,6.67
2019-02-18T01:50:28.313Z,6.30
2019-02-18T01:52:59.266Z,6.20
2019-02-18T01:55:32.408Z,7.13
2019-02-18T01:58:22.208Z,5.90
2019-02-18T02:00:53.212Z,5.77
2019-02-18T02:03:25.286Z,6.30
2019-02-18T02:06:26.800Z,6.10
2019-02-18T02:08:58.491Z,6.80
2019-02-18T02:11:29.468Z,6.63
2019-02-18T02:14:11.384Z,6.30
2019-02-18T02:16:53.981Z,6.27
2019-02-18T02:19:24.498Z,6.53
2019-02-18T02:22:09.311Z,5.67
2019-02-18T02:24:39.919Z,6.50
2019-02-18T02:27:12.020Z,6.57
2019-02-18T02:29:54.392Z,5.93
2019-02-18T02:32:24.971Z,6.40
2019-02-18T02:34:55.452Z,6.77
2019-02-18T02:37:37.333Z,6.33
2019-02-18T02:40:19.939Z,6.47
2019-02-18T02:42:51.491Z,6.90
2019-02-18T02:45:22.422Z,6.33
2019-02-18T02:47:54.552Z,6.37
2019-02-18T02:50:25.145Z,5.90
2019-02-18T02:52:55.629Z,6.13
2019-02-18T02:55:38.235Z,6.20
2019-02-18T02:58:20.760Z,6.87
2019-02-18T03:00:51.299Z,6.13
2019-02-18T03:03:21.813Z,6.50
2019-02-18T03:06:04.252Z,7.00
2019-02-18T03:08:45.932Z,6.40
2019-02-18T03:11:16.488Z,6.40
2019-02-18T03:17:10.380Z,7.10
2019-02-18T03:20:20.550Z,6.20
2019-02-18T03:22:51.151Z,6.10
2019-02-18T03:28:36.125Z,6.57
2019-02-18T03:31:20.053Z,6.50
2019-02-18T03:33:55.024Z,6.60
2019-02-18T03:36:25.668Z,6.60
2019-02-18T03:39:15.513Z,6.37
2019-02-18T03:44:48.663Z,6.77
2019-02-18T03:47:31.080Z,6.03
2019-02-18T03:50:02.611Z,6.17
2019-02-18T03:52:33.106Z,6.90
2019-02-18T03:55:15.222Z,6.13
2019-02-18T03:57:57.497Z,5.73
2019-02-18T04:00:28.422Z,6.43
2019-02-18T04:02:58.921Z,6.83
2019-02-18T04:05:49.367Z,6.37
2019-02-18T04:08:19.942Z,6.23
2019-02-18T04:10:50.923Z,6.90
2019-02-18T04:13:21.466Z,5.97
2019-02-18T04:15:52.283Z,6.63
2019-02-18T04:18:22.964Z,7.10
2019-02-18T04:20:53.829Z,6.93
2019-02-18T04:26:55.572Z,9.10
2019-02-18T04:29:37.782Z,8.40
2019-02-18T04:32:19.625Z,8.13
2019-02-18T04:34:50.170Z,8.77
2019-02-18T04:37:20.836Z,8.53
2019-02-18T04:40:02.637Z,8.03
2019-02-18T04:42:44.684Z,8.83
2019-02-18T04:45:16.474Z,9.07
2019-02-18T04:47:46.961Z,11.27
2019-02-18T04:50:36.874Z,9.83
2019-02-18T04:53:07.539Z,10.70
2019-02-18T04:55:38.406Z,9.90
2019-02-18T04:58:28.387Z,9.77
2019-02-18T05:00:58.947Z,8.33
2019-02-18T05:06:25.511Z,8.70
2019-02-18T05:09:05.043Z,8.83
2019-02-18T05:11:36.013Z,9.30
2019-02-18T05:14:26.048Z,9.10
2019-02-18T05:16:56.659Z,10.00
2019-02-18T05:19:46.261Z,9.03
2019-02-18T05:22:17.236Z,8.90
2019-02-18T05:24:50.053Z,9.23
2019-02-18T05:27:33.517Z,10.80
2019-02-18T05:30:16.069Z,10.10
2019-02-18T05:32:46.594Z,9.77
2019-02-18T05:35:38.359Z,9.90
2019-02-18T05:38:20.670Z,9.30
2019-02-18T05:40:51.317Z,10.13
2019-02-18T05:43:23.927Z,9.37
2019-02-18T05:46:13.715Z,8.77
2019-02-18T05:48:44.448Z,9.40
2019-02-18T05:51:37.587Z,9.10
2019-02-18T05:54:19.303Z,8.97
2019-02-18T05:56:50.257Z,8.33
2019-02-18T05:59:23.427Z,8.37
2019-02-18T06:02:06.056Z,9.30
2019-02-18T06:04:57.962Z,8.87
2019-02-18T06:07:28.521Z,8.30
2019-02-18T06:10:14.239Z,7.33
2019-02-18T06:12:47.477Z,9.07
2019-02-18T06:18:26.653Z,9.63
2019-02-18T06:21:16.780Z,11.17
2019-02-18T06:26:49.686Z,9.73
2019-02-18T06:29:32.256Z,10.40
2019-02-18T06:32:03.284Z,9.33
2019-02-18T06:34:57.056Z,9.83
2019-02-18T06:37:27.546Z,8.43
2019-02-18T06:39:58.156Z,7.80
2019-02-18T06:48:33.833Z,7.30
2019-02-18T06:51:04.364Z,7.77
2019-02-18T06:53:41.317Z,7.60
2019-02-18T06:56:11.843Z,7.60
2019-02-18T06:58:49.527Z,7.67
2019-02-18T07:01:59.512Z,8.40
2019-02-18T07:08:05.966Z,8.23
2019-02-18T07:10:41.331Z,8.30
2019-02-18T07:13:11.973Z,8.10
2019-02-18T07:16:01.584Z,6.87
2019-02-18T07:18:32.099Z,8.27
2019-02-18T07:21:02.741Z,8.60
2019-02-18T07:23:52.622Z,8.03
2019-02-18T07:26:44.227Z,13.83
2019-02-18T07:29:17.353Z,13.60
2019-02-18T07:32:00.941Z,14.43
2019-02-18T07:34:43.425Z,12.00
2019-02-18T07:40:23.696Z,10.10
2019-02-18T07:43:05.349Z,10.70
2019-02-18T07:48:38.627Z,9.47
2019-02-18T07:51:22.711Z,10.27
2019-02-18T07:54:04.466Z,10.27
2019-02-18T07:56:56.380Z,10.20
2019-02-18T07:59:26.973Z,10.67
2019-02-18T08:01:57.551Z,10.70
2019-02-18T08:04:47.383Z,10.20
2019-02-18T08:07:56.016Z,9.33
2019-02-18T08:11:04.725Z,8.63
2019-02-18T08:13:35.675Z,11.87
2019-02-18T08:16:31.774Z,10.73
2019-02-18T08:19:16.620Z,10.00
2019-02-18T08:22:23.390Z,8.70
2019-02-18T08:24:56.568Z,8.50
2019-02-18T08:27:46.370Z,8.53
2019-02-18T08:33:41.256Z,8.03
2019-02-18T08:36:11.931Z,8.00
2019-02-18T08:38:42.525Z,7.50
2019-02-18T08:41:33.534Z,7.83
2019-02-18T08:44:04.082Z,6.90
2019-02-18T08:46:34.525Z,7.27
2019-02-18T08:49:17.361Z,7.27
2019-02-18T08:51:59.855Z,6.80
2019-02-18T08:57:46.711Z,4.40
2019-02-18T09:09:13.435Z,4.33
2019-02-18T09:11:44.065Z,4.93
2019-02-18T09:18:09.238Z,5.33
2019-02-18T09:20:39.864Z,6.47
2019-02-18T09:23:47.950Z,7.07
2019-02-18T09:26:39.765Z,6.43
2019-02-18T09:29:39.946Z,6.77
2019-02-18T09:32:29.945Z,6.90
2019-02-18T09:35:02.445Z,6.33
2019-02-18T09:40:50.713Z,6.13
2019-02-18T09:43:37.690Z,5.67
2019-02-18T09:46:30.129Z,5.80
2019-02-18T09:49:00.786Z,5.20
2019-02-18T09:51:45.008Z,4.73
2019-02-18T09:54:24.012Z,5.67
2019-02-18T09:56:54.609Z,5.43
2019-02-18T09:59:44.240Z,5.07
2019-02-18T10:02:14.831Z,5.20
2019-02-18T10:04:57.239Z,5.27
2019-02-18T10:07:55.751Z,5.20
2019-02-18T10:10:26.305Z,5.37
2019-02-18T10:13:18.859Z,5.20
2019-02-18T10:15:49.542Z,4.97
2019-02-18T10:18:22.458Z,5.10
2019-02-18T10:32:57.435Z,4.53
2019-02-18T10:35:47.051Z,4.07
2019-02-18T10:38:40.249Z,4.10
2019-02-18T10:41:19.169Z,4.40
2019-02-18T10:51:10.538Z,5.90
2019-02-18T10:54:31.605Z,4.57
2019-02-18T10:57:39.841Z,4.53
2019-02-18T11:00:11.827Z,4.00
2019-02-18T11:02:42.284Z,3.70
2019-02-18T11:05:24.258Z,4.33
2019-02-18T11:08:06.526Z,3.87
2019-02-18T11:10:40.061Z,3.87
2019-02-18T11:16:22.909Z,3.97
2019-02-18T11:18:53.486Z,3.40
2019-02-18T11:21:24.798Z,4.07
2019-02-18T11:24:06.972Z,3.67
2019-02-18T11:26:48.551Z,3.60
2019-02-18T11:29:57.912Z,3.53
2019-02-18T11:35:37.303Z,3.80
2019-02-18T11:38:10.093Z,4.30
2019-02-18T11:41:01.539Z,4.10
2019-02-18T11:43:34.116Z,4.33
2019-02-18T11:46:04.468Z,3.47
2019-02-18T11:49:14.626Z,3.40
2019-02-18T11:51:44.920Z,4.40
2019-02-18T11:54:15.222Z,3.83
2019-02-18T11:56:57.587Z,3.60
2019-02-18T11:59:39.487Z,3.40
2019-02-18T12:02:09.783Z,3.00
2019-02-18T12:05:20.201Z,3.27
2019-02-18T12:08:11.761Z,3.37
2019-02-18T12:11:01.200Z,2.87
2019-02-18T12:13:52.980Z,3.30
2019-02-18T12:17:20.498Z,3.13
2019-02-18T12:19:49.359Z,3.23
2019-02-18T12:22:31.286Z,3.47
2019-02-18T12:25:13.678Z,3.30
2019-02-18T12:33:22.257Z,2.50
2019-02-18T12:35:54.209Z,2.63
2019-02-18T12:38:36.258Z,2.90
2019-02-18T12:41:08.565Z,2.90
2019-02-18T12:50:09.807Z,4.00
2019-02-18T12:52:52.255Z,3.70
2019-02-18T12:55:25.817Z,3.30
2019-02-18T12:58:15.619Z,4.10
2019-02-18T13:03:49.856Z,4.40
2019-02-18T13:06:32.148Z,4.30
2019-02-18T13:09:21.300Z,4.87
2019-02-18T13:14:54.107Z,4.97
2019-02-18T13:17:46.145Z,4.23
2019-02-18T13:20:18.307Z,4.30
2019-02-18T13:22:59.991Z,4.60
2019-02-18T13:25:47.457Z,4.57
2019-02-18T13:28:14.206Z,4.73
2019-02-18T13:30:46.577Z,4.80
2019-02-18T13:33:48.842Z,4.93
2019-02-18T13:36:15.551Z,6.10
2019-02-18T13:39:05.477Z,5.67
2019-02-18T13:41:46.318Z,5.10
2019-02-18T13:47:25.347Z,4.37
2019-02-18T13:50:16.863Z,4.60
2019-02-18T13:52:47.143Z,4.80
2019-02-18T13:55:29.409Z,5.53
2019-02-18T13:58:18.769Z,4.80
2019-02-18T14:01:10.442Z,4.60
2019-02-18T14:03:40.827Z,4.50
2019-02-18T14:06:11.088Z,4.40
2019-02-18T14:08:41.368Z,4.73
2019-02-18T14:11:26.816Z,4.97
2019-02-18T14:13:57.335Z,4.73
2019-02-18T14:17:24.642Z,5.07
2019-02-18T14:23:25.910Z,5.07
2019-02-18T14:26:15.275Z,5.10
2019-02-18T14:28:49.981Z,5.57
2019-02-18T14:31:20.260Z,5.17
2019-02-18T14:33:52.132Z,4.60
2019-02-18T14:36:22.452Z,5.03
2019-02-18T14:39:02.328Z,5.00
2019-02-18T14:44:36.730Z,4.67
2019-02-18T14:47:21.151Z,4.50
2019-02-18T14:49:53.583Z,4.73
2019-02-18T14:55:34.102Z,5.13
2019-02-18T14:58:07.662Z,5.00
2019-02-18T15:00:37.974Z,5.03
2019-02-18T15:03:32.254Z,4.80
2019-02-18T15:06:15.625Z,4.40
2019-02-18T15:15:14.887Z,4.47
2019-02-18T15:17:45.184Z,4.27
2019-02-18T15:20:15.506Z,4.63
2019-02-18T15:26:32.560Z,4.40
2019-02-18T15:35:45.203Z,4.73
2019-02-18T15:38:17.177Z,4.47
2019-02-18T15:40:48.487Z,4.53
2019-02-18T15:43:20.124Z,4.40
2019-02-18T15:46:02.143Z,4.20
2019-02-18T15:55:12.828Z,4.37
2019-02-18T15:57:44.106Z,4.87
2019-02-18T16:00:35.370Z,4.83
2019-02-18T16:03:05.743Z,4.67
2019-02-18T16:11:53.377Z,4.07
2019-02-18T16:14:23.784Z,4.33
2019-02-18T16:16:56.156Z,4.17
2019-02-18T16:23:04.411Z,4.47
2019-02-18T16:28:56.380Z,4.07
2019-02-18T16:34:46.209Z,4.10
2019-02-18T16:37:35.755Z,4.80
2019-02-18T16:40:28.366Z,4.80
2019-02-18T16:45:55.330Z,4.37
2019-02-18T16:48:54.101Z,3.83
2019-02-18T16:51:24.318Z,4.80
2019-02-18T16:54:06.763Z,4.27
2019-02-18T16:56:49.876Z,4.77
2019-02-18T17:05:41.240Z,4.07
2019-02-18T17:12:12.163Z,4.23
2019-02-18T17:14:26.264Z,4.27
2019-02-18T17:16:58.972Z,4.60
2019-02-18T17:19:41.143Z,5.30
2019-02-18T17:22:23.404Z,5.77
2019-02-18T17:27:48.464Z,4.60
2019-02-18T17:30:30.713Z,4.97
2019-02-18T17:33:32.552Z,4.90
2019-02-18T17:38:50.445Z,4.70
2019-02-18T17:44:10.076Z,4.70
2019-02-18T17:52:25.801Z,4.63
2019-02-18T17:55:48.339Z,5.63
2019-02-18T18:01:42.352Z,4.90
2019-02-18T18:07:28.039Z,4.83
2019-02-18T18:10:31.311Z,4.03
2019-02-18T18:13:00.098Z,4.07
2019-02-18T18:15:43.631Z,4.50
2019-02-18T18:18:14.188Z,3.83
2019-02-18T18:29:50.100Z,5.70
2019-02-18T18:32:23.087Z,4.83
2019-02-18T18:38:23.691Z,5.07
2019-02-18T18:41:13.298Z,4.50
2019-02-18T18:44:02.681Z,4.30
2019-02-18T18:46:50.466Z,4.30
2019-02-18T18:49:28.102Z,4.77
2019-02-18T18:51:58.419Z,4.37
2019-02-18T18:54:40.372Z,4.00
2019-02-18T18:57:22.523Z,4.60
2019-02-18T19:02:57.789Z,4.50
2019-02-18T19:05:39.783Z,4.80
2019-02-18T19:08:16.505Z,4.23
2019-02-18T19:11:08.462Z,4.60
2019-02-18T19:17:27.177Z,4.20
2019-02-18T19:20:00.354Z,3.83
2019-02-18T19:22:57.504Z,4.20
2019-02-18T19:29:21.588Z,4.30
2019-02-18T19:32:24.304Z,4.57
2019-02-18T19:35:07.372Z,4.30
2019-02-18T19:38:15.957Z,4.30
2019-02-18T19:44:14.098Z,4.33
2019-02-18T19:47:37.272Z,4.80
2019-02-18T19:50:21.002Z,4.47
2019-02-18T19:52:52.889Z,4.20
2019-02-18T19:55:46.274Z,4.40
2019-02-18T19:58:25.669Z,4.30
2019-02-18T20:01:15.312Z,4.23
2019-02-18T20:04:32.240Z,5.03
2019-02-18T20:09:50.808Z,4.20
2019-02-18T20:12:40.445Z,4.10
2019-02-18T20:24:49.339Z,8.30
2019-02-18T20:28:11.465Z,9.60
2019-02-18T20:30:59.245Z,9.33
2019-02-18T20:33:30.384Z,9.73
2019-02-18T20:36:10.358Z,8.37
2019-02-18T20:38:42.705Z,7.83
2019-02-18T20:41:13.069Z,5.40
2019-02-18T20:44:07.475Z,5.00
2019-02-18T20:46:42.061Z,4.67
2019-02-18T20:49:35.284Z,5.07
2019-02-18T20:54:53.994Z,5.20
2019-02-18T20:57:36.850Z,4.77
2019-02-18T21:00:12.696Z,4.97
2019-02-18T21:06:11.955Z,4.67
2019-02-18T21:08:42.284Z,5.23
2019-02-18T21:11:15.006Z,4.93
2019-02-18T21:13:58.154Z,4.70
2019-02-18T21:16:49.601Z,5.23
2019-02-18T21:22:01.438Z,4.43
2019-02-18T21:27:36.378Z,4.87
2019-02-18T21:30:09.753Z,4.47
2019-02-18T21:33:13.783Z,5.23
2019-02-18T21:39:21.750Z,5.37
2019-02-18T21:41:52.290Z,5.13
2019-02-18T21:47:56.170Z,5.43
2019-02-18T21:53:29.713Z,5.50
2019-02-18T21:56:14.459Z,5.70
2019-02-18T21:59:06.849Z,5.10
2019-02-18T22:01:48.161Z,5.60
2019-02-18T22:04:37.493Z,5.67
2019-02-18T22:07:07.807Z,6.30
2019-02-18T22:09:57.170Z,5.43
2019-02-18T22:12:29.877Z,6.53
2019-02-18T22:15:19.273Z,7.07
2019-02-18T22:18:46.950Z,6.40
2019-02-18T22:21:17.258Z,6.93
2019-02-18T22:23:59.253Z,7.03
2019-02-18T22:26:44.076Z,6.50
2019-02-18T22:29:50.130Z,7.00
2019-02-18T22:32:31.036Z,6.67
2019-02-18T22:35:02.385Z,7.23
2019-02-18T22:37:45.290Z,6.37
2019-02-18T22:40:15.597Z,5.97
2019-02-18T22:43:05.192Z,5.70
2019-02-18T22:45:35.439Z,6.07
2019-02-18T22:48:05.718Z,5.60
2019-02-18T22:50:35.964Z,6.17
2019-02-18T22:53:17.563Z,7.83
2019-02-18T22:56:02.839Z,6.40
2019-02-18T23:07:27.626Z,6.47
2019-02-18T23:10:17.155Z,6.20
2019-02-18T23:12:49.104Z,6.47
2019-02-18T23:15:31.442Z,6.47
2019-02-18T23:18:14.122Z,6.20
2019-02-18T23:23:27.175Z,6.27
2019-02-18T23:26:09.278Z,6.13
2019-02-18T23:31:33.114Z,7.10
2019-02-18T23:34:10.600Z,6.50
2019-02-18T23:36:41.265Z,6.83
2019-02-18T23:39:11.463Z,5.53
2019-02-18T23:45:34.101Z,5.97
2019-02-18T23:53:56.479Z,6.03
2019-02-18T23:56:39.007Z,6.10
2019-02-18T23:59:21.178Z,5.83
